Time,TemperatureF,DewpointF,PressureIn,WindDirection,WindDirectionDegrees,WindSpeedMPH,WindSpeedGustMPH,Humidity,HourlyPrecipIn,Conditions,Clouds,dailyrainin,SolarRadiationWatts/m^2,SoftwareType,DateUTC
2013-01-05 00:00:00,52.0,50.0,30.31,North,355,10.0,13.0,93,0.00,,CLR,0.04,0.00,VWS V14.01,2013-01-05 05:00:00,
2013-01-05 00:05:00,51.9,49.9,30.31,NNE,19,5.0,7.0,93,0.00,,CLR,0.00,0.00,VWS V14.01,2013-01-05 05:05:00,
2013-01-05 00:11:00,51.9,49.9,30.31,North,5,13.0,13.0,93,0.00,,CLR,0.00,0.00,VWS V14.01,2013-01-05 05:11:00,
2013-01-05 00:16:00,51.9,49.9,30.30,NNE,18,2.0,13.0,93,0.00,,CLR,0.00,0.00,VWS V14.01,2013-01-05 05:16:00,
2013-01-05 00:21:00,51.9,49.9,30.30,NNE,13,4.0,13.0,93,0.00,,CLR,0.00,0.00,VWS V14.01,2013-01-05 05:21:00,
2013-01-05 00:26:00,51.9,49.9,30.29,North,351,10.0,13.0,93,0.00,,CLR,0.00,0.00,VWS V14.01,2013-01-05 05:26:00,
2013-01-05 00:31:00,51.9,49.9,30.29,NNE,22,4.0,5.0,93,0.00,,CLR,0.00,0.00,VWS V14.01,2013-01-05 05:31:00,
2013-01-05 00:36:00,51.8,49.8,30.29,North,360,8.0,11.0,93,0.00,,CLR,0.00,0.00,VWS V14.01,2013-01-05 05:36:00,
2013-01-05 00:41:00,51.8,49.8,30.29,North,5,4.0,11.0,93,0.00,,CLR,0.00,0.00,VWS V14.01,2013-01-05 05:41:00,
2013-01-05 00:46:00,51.7,49.8,30.29,North,355,9.0,11.0,93,0.00,,CLR,0.00,0.00,VWS V14.01,2013-01-05 05:46:00,
2013-01-05 00:51:00,51.6,49.4,30.29,North,355,3.0,14.0,92,0.00,,CLR,0.00,0.00,VWS V14.01,2013-01-05 05:51:00,
2013-01-05 00:56:00,51.5,49.3,30.29,North,360,5.0,14.0,92,0.00,,CLR,0.00,0.00,VWS V14.01,2013-01-05 05:56:00,
2013-01-05 01:00:00,49.7,47.5,30.29,North,351,3.0,9.0,92,0.00,,,0.00,0.00,VWS V15.00,2013-01-05 06:00:00,
2013-01-05 01:01:00,51.4,49.2,30.29,NE,40,4.0,4.0,92,0.00,,CLR,0.00,0.00,VWS V14.01,2013-01-05 06:01:00,
2013-01-05 01:06:00,51.2,49.0,30.29,North,360,4.0,9.0,92,0.00,,CLR,0.00,0.00,VWS V14.01,2013-01-05 06:06:00,
2013-01-05 01:11:00,51.1,48.9,30.28,North,10,2.0,9.0,92,0.00,,CLR,0.00,0.00,VWS V14.01,2013-01-05 06:11:00,
2013-01-05 01:16:00,51.0,48.8,30.29,NNE,14,5.0,9.0,92,0.00,,CLR,0.00,0.00,VWS V14.01,2013-01-05 06:16:00,
2013-01-05 01:21:00,50.9,48.7,30.29,North,355,6.0,9.0,92,0.00,,CLR,0.00,0.00,VWS V14.01,2013-01-05 06:21:00,
2013-01-05 01:26:00,50.8,48.6,30.28,North,355,5.0,9.0,92,0.00,,CLR,0.00,0.00,VWS V14.01,2013-01-05 06:26:00,
2013-01-05 01:47:00,50.7,48.8,30.28,NNE,18,6.0,9.0,93,0.00,,CLR,0.00,0.00,VWS V14.01,2013-01-05 06:47:00,
2013-01-05 01:52:00,49.9,48.0,30.29,North,360,4.0,9.0,93,0.00,,CLR,0.00,0.00,VWS V14.01,2013-01-05 06:52:00,
2013-01-05 01:57:00,49.7,47.8,30.29,North,5,3.0,9.0,93,0.00,,CLR,0.00,0.00,VWS V14.01,2013-01-05 06:57:00,
2013-01-05 02:00:00,49.0,47.1,30.28,North,350,3.0,7.0,93,0.00,,,0.00,0.00,VWS V15.00,2013-01-05 07:00:00,
2013-01-05 02:02:00,49.6,47.4,30.29,North,5,3.0,5.0,92,0.00,,CLR,0.00,0.00,VWS V14.01,2013-01-05 07:02:00,
2013-01-05 02:07:00,49.5,47.6,30.28,North,5,2.0,6.0,93,0.00,,CLR,0.00,0.00,VWS V14.01,2013-01-05 07:07:00,
2013-01-05 02:12:00,49.4,47.5,30.28,North,9,3.0,6.0,93,0.00,,CLR,0.00,0.00,VWS V14.01,2013-01-05 07:12:00,
2013-01-05 02:17:00,49.2,47.3,30.28,NNE,30,3.0,6.0,93,0.00,,CLR,0.00,0.00,VWS V14.01,2013-01-05 07:17:00,
2013-01-05 02:30:00,48.8,46.9,30.28,NNE,28,4.0,7.0,93,0.00,,,0.00,0.00,VWS V15.00,2013-01-05 07:30:00,
2013-01-05 02:33:00,49.2,47.3,30.28,NE,35,1.0,6.0,93,0.00,,CLR,0.00,0.00,VWS V14.01,2013-01-05 07:33:00,
2013-01-05 02:38:00,49.0,47.1,30.28,North,350,7.0,7.0,93,0.00,,CLR,0.00,0.00,VWS V14.01,2013-01-05 07:38:00,
2013-01-05 02:43:00,49.0,47.1,30.28,North,355,2.0,7.0,93,0.00,,CLR,0.00,0.00,VWS V14.01,2013-01-05 07:43:00,
2013-01-05 02:48:00,49.0,47.1,30.27,NNE,13,4.0,7.0,93,0.00,,CLR,0.00,0.00,VWS V14.01,2013-01-05 07:48:00,
2013-01-05 02:53:00,49.0,47.1,30.27,NNE,15,2.0,7.0,93,0.00,,CLR,0.00,0.00,VWS V14.01,2013-01-05 07:53:00,
2013-01-05 02:58:00,49.0,47.1,30.28,North,355,2.0,7.0,93,0.00,,CLR,0.00,0.00,VWS V14.01,2013-01-05 07:58:00,
2013-01-05 03:03:00,49.0,47.1,30.28,North,5,3.0,4.0,93,0.00,,CLR,0.00,0.00,VWS V14.01,2013-01-05 08:03:00,
2013-01-05 03:08:00,49.0,47.1,30.28,North,355,6.0,6.0,93,0.00,,CLR,0.00,0.00,VWS V14.01,2013-01-05 08:08:00,
2013-01-05 03:13:00,49.1,47.2,30.28,NNE,15,5.0,7.0,93,0.00,,CLR,0.00,0.00,VWS V14.01,2013-01-05 08:13:00,
2013-01-05 03:18:00,49.0,47.1,30.27,NNE,14,2.0,7.0,93,0.00,,CLR,0.00,0.00,VWS V14.01,2013-01-05 08:18:00,
2013-01-05 03:23:00,49.0,47.1,30.28,NNE,17,0.0,7.0,93,0.00,,CLR,0.00,0.00,VWS V14.01,2013-01-05 08:23:00,
2013-01-05 03:28:00,48.9,47.0,30.28,North,355,6.0,7.0,93,0.00,,CLR,0.00,0.00,VWS V14.01,2013-01-05 08:28:00,
2013-01-05 03:30:00,47.8,45.6,30.28,NNE,14,3.0,7.0,92,0.00,,,0.00,0.00,VWS V15.00,2013-01-05 08:30:00,
2013-01-05 03:33:00,48.8,46.9,30.27,NE,34,5.0,5.0,93,0.00,,CLR,0.00,0.00,VWS V14.01,2013-01-05 08:33:00,
2013-01-05 03:38:00,48.7,46.8,30.27,NNE,13,5.0,6.0,93,0.00,,CLR,0.00,0.00,VWS V14.01,2013-01-05 08:38:00,
2013-01-05 03:43:00,48.6,46.7,30.28,North,355,5.0,6.0,93,0.00,,CLR,0.00,0.00,VWS V14.01,2013-01-05 08:43:00,
2013-01-05 03:48:00,48.5,46.6,30.27,North,11,4.0,6.0,93,0.00,,CLR,0.00,0.00,VWS V14.01,2013-01-05 08:48:00,
2013-01-05 03:53:00,48.5,46.3,30.27,NNE,17,4.0,7.0,92,0.00,,CLR,0.00,0.00,VWS V14.01,2013-01-05 08:53:00,
2013-01-05 03:58:00,48.4,46.2,30.27,NNE,26,2.0,7.0,92,0.00,,CLR,0.00,0.00,VWS V14.01,2013-01-05 08:58:00,
2013-01-05 04:00:00,47.1,45.2,30.28,North,11,3.0,6.0,93,0.00,,,0.00,0.00,VWS V15.00,2013-01-05 09:00:00,
2013-01-05 04:03:00,48.3,46.1,30.27,NNE,28,4.0,7.0,92,0.00,,CLR,0.00,0.00,VWS V14.01,2013-01-05 09:03:00,
2013-01-05 04:08:00,48.2,46.0,30.28,North,5,3.0,7.0,92,0.00,,CLR,0.00,0.00,VWS V14.01,2013-01-05 09:08:00,
2013-01-05 04:13:00,48.2,46.0,30.28,NNE,19,1.0,7.0,92,0.00,,CLR,0.00,0.00,VWS V14.01,2013-01-05 09:13:00,
2013-01-05 04:18:00,48.0,45.8,30.28,North,9,0.0,7.0,92,0.00,,CLR,0.00,0.00,VWS V14.01,2013-01-05 09:18:00,
2013-01-05 04:23:00,48.0,45.8,30.28,North,10,2.0,7.0,92,0.00,,CLR,0.00,0.00,VWS V14.01,2013-01-05 09:23:00,
2013-01-05 04:28:00,47.9,45.7,30.28,North,11,1.0,7.0,92,0.00,,CLR,0.00,0.00,VWS V14.01,2013-01-05 09:28:00,
2013-01-05 04:30:00,46.6,44.7,30.28,North,5,4.0,7.0,93,0.00,,,0.00,0.00,VWS V15.00,2013-01-05 09:30:00,
2013-01-05 04:33:00,47.7,45.5,30.28,North,11,2.0,4.0,92,0.00,,CLR,0.00,0.00,VWS V14.01,2013-01-05 09:33:00,
2013-01-05 04:38:00,47.6,45.4,30.28,North,5,2.0,5.0,92,0.00,,CLR,0.00,0.00,VWS V14.01,2013-01-05 09:38:00,
2013-01-05 04:43:00,47.4,45.2,30.28,NNW,346,4.0,5.0,92,0.00,,CLR,0.00,0.00,VWS V14.01,2013-01-05 09:43:00,
2013-01-05 04:48:00,47.2,45.0,30.28,North,360,3.0,5.0,92,0.00,,CLR,0.00,0.00,VWS V14.01,2013-01-05 09:48:00,
2013-01-05 04:53:00,47.0,45.1,30.28,North,5,3.0,6.0,93,0.00,,CLR,0.00,0.00,VWS V14.01,2013-01-05 09:53:00,
2013-01-05 04:59:00,47.1,45.2,30.28,North,360,4.0,6.0,93,0.00,,CLR,0.00,0.00,VWS V14.01,2013-01-05 09:59:00,
2013-01-05 05:00:00,46.8,44.9,30.29,NNE,15,0.0,5.0,93,0.00,,,0.00,0.00,VWS V15.00,2013-01-05 10:00:00,
2013-01-05 05:03:00,47.0,45.1,30.28,North,355,4.0,6.0,93,0.00,,CLR,0.00,0.00,VWS V14.01,2013-01-05 10:03:00,
2013-01-05 05:08:00,47.0,45.1,30.28,NNE,20,6.0,7.0,93,0.00,,CLR,0.00,0.00,VWS V14.01,2013-01-05 10:08:00,
2013-01-05 05:13:00,46.9,45.0,30.28,North,360,3.0,7.0,93,0.00,,CLR,0.00,0.00,VWS V14.01,2013-01-05 10:13:00,
2013-01-05 05:19:00,46.9,45.0,30.28,North,355,4.0,7.0,93,0.00,,CLR,0.00,0.00,VWS V14.01,2013-01-05 10:19:00,
2013-01-05 05:24:00,46.8,44.9,30.28,NNE,14,2.0,7.0,93,0.00,,CLR,0.00,0.00,VWS V14.01,2013-01-05 10:24:00,
2013-01-05 05:29:00,46.6,44.7,30.27,North,11,2.0,7.0,93,0.00,,CLR,0.00,0.00,VWS V14.01,2013-01-05 10:29:00,
2013-01-05 05:30:00,46.0,44.4,30.29,North,355,5.0,5.0,94,0.00,,,0.00,0.00,VWS V15.00,2013-01-05 10:30:00,
2013-01-05 05:34:00,46.7,44.8,30.28,North,355,3.0,4.0,93,0.00,,CLR,0.00,0.00,VWS V14.01,2013-01-05 10:34:00,
2013-01-05 05:39:00,46.7,44.8,30.28,North,355,2.0,5.0,93,0.00,,CLR,0.00,0.00,VWS V14.01,2013-01-05 10:39:00,
2013-01-05 05:44:00,46.7,44.8,30.28,North,11,5.0,5.0,93,0.00,,CLR,0.00,0.00,VWS V14.01,2013-01-05 10:44:00,
2013-01-05 05:49:00,46.8,44.9,30.28,NNE,12,2.0,5.0,93,0.00,,CLR,0.00,0.00,VWS V14.01,2013-01-05 10:49:00,
2013-01-05 05:54:00,46.8,44.9,30.29,NNE,15,0.0,5.0,93,0.00,,CLR,0.00,0.00,VWS V14.01,2013-01-05 10:54:00,
2013-01-05 05:59:00,46.8,44.9,30.29,NNE,15,0.0,5.0,93,0.00,,CLR,0.00,0.00,VWS V14.01,2013-01-05 10:59:00,
2013-01-05 06:00:00,45.9,44.0,30.30,North,360,3.0,6.0,93,0.00,,,0.00,0.00,VWS V15.00,2013-01-05 11:00:00,
2013-01-05 06:04:00,46.7,44.8,30.29,ENE,57,0.0,1.0,93,0.00,,CLR,0.00,0.00,VWS V14.01,2013-01-05 11:04:00,
2013-01-05 06:09:00,46.6,44.7,30.29,ENE,57,2.0,2.0,93,0.00,,CLR,0.00,0.00,VWS V14.01,2013-01-05 11:09:00,
2013-01-05 06:14:00,46.4,44.8,30.29,NNE,19,2.0,3.0,94,0.00,,CLR,0.00,0.00,VWS V14.01,2013-01-05 11:14:00,
2013-01-05 06:19:00,46.3,44.7,30.28,NNW,348,4.0,4.0,94,0.00,,CLR,0.00,0.00,VWS V14.01,2013-01-05 11:19:00,
2013-01-05 06:24:00,46.2,44.6,30.29,NW,323,2.0,4.0,94,0.00,,CLR,0.00,0.00,VWS V14.01,2013-01-05 11:24:00,
2013-01-05 06:29:00,46.1,44.5,30.29,North,355,3.0,5.0,94,0.00,,CLR,0.00,0.00,VWS V14.01,2013-01-05 11:29:00,
2013-01-05 06:30:00,45.8,43.6,30.31,NNW,336,3.0,6.0,92,0.00,,,0.00,9.00,VWS V15.00,2013-01-05 11:30:00,
2013-01-05 06:34:00,46.0,44.4,30.30,NNW,342,6.0,6.0,94,0.00,,CLR,0.00,0.00,VWS V14.01,2013-01-05 11:34:00,
2013-01-05 06:39:00,46.1,44.5,30.30,North,355,2.0,6.0,94,0.00,,CLR,0.00,0.00,VWS V14.01,2013-01-05 11:39:00,
2013-01-05 06:44:00,46.0,44.4,30.30,NNE,21,3.0,6.0,94,0.00,,CLR,0.00,0.00,VWS V14.01,2013-01-05 11:44:00,
2013-01-05 06:49:00,46.0,44.1,30.30,North,5,3.0,6.0,93,0.00,,CLR,0.00,0.00,VWS V14.01,2013-01-05 11:49:00,
2013-01-05 06:54:00,46.0,44.1,30.30,NNW,329,4.0,6.0,93,0.00,,CLR,0.00,0.00,VWS V14.01,2013-01-05 11:54:00,
2013-01-05 06:59:00,46.0,44.1,30.30,North,360,3.0,6.0,93,0.00,,CLR,0.00,0.00,VWS V14.01,2013-01-05 11:59:00,
2013-01-05 07:00:00,46.5,44.0,30.32,NNW,332,4.0,7.0,91,0.00,,,0.00,44.00,VWS V15.00,2013-01-05 12:00:00,
2013-01-05 07:04:00,45.9,44.0,30.30,NNE,15,2.0,3.0,93,0.00,,CLR,0.00,0.00,VWS V14.01,2013-01-05 12:04:00,
2013-01-05 07:09:00,45.9,44.0,30.30,NNE,26,1.0,4.0,93,0.00,,CLR,0.00,0.00,VWS V14.01,2013-01-05 12:09:00,
2013-01-05 07:14:00,45.8,43.9,30.30,North,10,3.0,5.0,93,0.00,,CLR,0.00,0.00,VWS V14.01,2013-01-05 12:14:00,
2013-01-05 07:19:00,45.9,44.0,30.30,North,11,3.0,6.0,93,0.00,,CLR,0.00,0.00,VWS V14.01,2013-01-05 12:19:00,
2013-01-05 07:24:00,45.9,43.7,30.31,North,360,4.0,6.0,92,0.00,,CLR,0.00,5.00,VWS V14.01,2013-01-05 12:24:00,
2013-01-05 07:29:00,45.8,43.6,30.31,NNW,346,2.0,6.0,92,0.00,,CLR,0.00,7.00,VWS V14.01,2013-01-05 12:29:00,
2013-01-05 07:30:00,48.1,45.0,30.32,North,5,4.0,8.0,89,0.00,,,0.00,70.00,VWS V15.00,2013-01-05 12:30:00,
2013-01-05 07:34:00,45.7,43.5,30.31,North,5,3.0,4.0,92,0.00,,CLR,0.00,11.00,VWS V14.01,2013-01-05 12:34:00,
2013-01-05 07:39:00,45.7,43.5,30.31,North,355,4.0,5.0,92,0.00,,CLR,0.00,14.00,VWS V14.01,2013-01-05 12:39:00,
2013-01-05 07:44:00,45.9,43.7,30.31,North,355,4.0,6.0,92,0.00,,CLR,0.00,16.00,VWS V14.01,2013-01-05 12:44:00,
2013-01-05 07:49:00,46.0,43.8,30.31,North,5,2.0,7.0,92,0.00,,CLR,0.00,19.00,VWS V14.01,2013-01-05 12:49:00,
2013-01-05 07:54:00,46.2,44.0,30.31,North,355,5.0,7.0,92,0.00,,CLR,0.00,35.00,VWS V14.01,2013-01-05 12:54:00,
2013-01-05 07:59:00,46.4,43.9,30.32,NNW,344,5.0,7.0,91,0.00,,CLR,0.00,42.00,VWS V14.01,2013-01-05 12:59:00,
2013-01-05 08:04:00,46.6,44.1,30.32,North,355,5.0,6.0,91,0.00,,CLR,0.00,44.00,VWS V14.01,2013-01-05 13:04:00,
2013-01-05 08:09:00,46.6,44.1,30.32,NNW,344,2.0,7.0,91,0.00,,CLR,0.00,62.00,VWS V14.01,2013-01-05 13:09:00,
2013-01-05 08:14:00,46.9,44.4,30.32,NNE,12,3.0,7.0,91,0.00,,CLR,0.00,72.00,VWS V14.01,2013-01-05 13:14:00,
2013-01-05 08:19:00,47.2,44.4,30.32,North,9,5.0,8.0,90,0.00,,CLR,0.00,81.00,VWS V14.01,2013-01-05 13:19:00,
2013-01-05 08:24:00,47.6,44.8,30.32,North,5,3.0,8.0,90,0.00,,CLR,0.00,79.00,VWS V14.01,2013-01-05 13:24:00,
2013-01-05 08:29:00,47.9,44.8,30.32,North,355,6.0,8.0,89,0.00,,CLR,0.00,77.00,VWS V14.01,2013-01-05 13:29:00,
2013-01-05 08:30:00,53.1,47.8,30.32,NNE,26,3.0,11.0,82,0.00,,,0.00,334.00,VWS V15.00,2013-01-05 13:30:00,
2013-01-05 08:34:00,48.2,44.8,30.32,NNE,22,3.0,7.0,88,0.00,,CLR,0.00,83.00,VWS V14.01,2013-01-05 13:34:00,
2013-01-05 08:39:00,48.5,45.1,30.32,NE,46,5.0,7.0,88,0.00,,CLR,0.00,139.00,VWS V14.01,2013-01-05 13:39:00,
2013-01-05 08:44:00,49.1,45.4,30.32,North,5,3.0,8.0,87,0.00,,CLR,0.00,160.00,VWS V14.01,2013-01-05 13:44:00,
2013-01-05 08:49:00,49.7,45.7,30.32,NNE,23,7.0,8.0,86,0.00,,CLR,0.00,190.00,VWS V14.01,2013-01-05 13:49:00,
2013-01-05 08:54:00,49.9,45.9,30.32,North,355,4.0,10.0,86,0.00,,CLR,0.00,209.00,VWS V14.01,2013-01-05 13:54:00,
2013-01-05 08:59:00,50.3,46.0,30.33,NNE,24,4.0,10.0,85,0.00,,CLR,0.00,227.00,VWS V14.01,2013-01-05 13:59:00,
2013-01-05 09:04:00,50.7,46.0,30.33,NNE,24,6.0,9.0,84,0.00,,CLR,0.00,229.00,VWS V14.01,2013-01-05 14:04:00,
2013-01-05 09:09:00,51.2,46.5,30.33,NNE,26,8.0,9.0,84,0.00,,CLR,0.00,225.00,VWS V14.01,2013-01-05 14:09:00,
2013-01-05 09:14:00,51.6,46.6,30.33,NNE,24,5.0,11.0,83,0.00,,CLR,0.00,234.00,VWS V14.01,2013-01-05 14:14:00,
2013-01-05 09:20:00,52.2,47.2,30.32,NNE,21,3.0,11.0,83,0.00,,CLR,0.00,265.00,VWS V14.01,2013-01-05 14:20:00,
2013-01-05 09:25:00,52.9,47.6,30.32,NNE,28,6.0,11.0,82,0.00,,CLR,0.00,308.00,VWS V14.01,2013-01-05 14:25:00,
2013-01-05 09:30:00,52.9,47.6,30.32,NNE,33,2.0,11.0,82,0.00,,CLR,0.00,327.00,VWS V14.01,2013-01-05 14:30:00,
2013-01-05 09:35:00,53.7,48.3,30.32,NE,49,3.0,8.0,82,0.00,,CLR,0.00,343.00,VWS V14.01,2013-01-05 14:35:00,
2013-01-05 09:40:00,54.4,49.0,30.32,NE,38,5.0,8.0,82,0.00,,CLR,0.00,359.00,VWS V14.01,2013-01-05 14:40:00,
2013-01-05 09:45:00,54.8,49.1,30.32,NE,37,4.0,8.0,81,0.00,,CLR,0.00,373.00,VWS V14.01,2013-01-05 14:45:00,
2013-01-05 09:50:00,55.3,49.2,30.32,NNE,22,4.0,10.0,80,0.00,,CLR,0.00,387.00,VWS V14.01,2013-01-05 14:50:00,
2013-01-05 09:55:00,55.9,49.8,30.32,NE,45,5.0,10.0,80,0.00,,CLR,0.00,396.00,VWS V14.01,2013-01-05 14:55:00,
2013-01-05 10:00:00,56.3,49.9,30.32,North,5,4.0,10.0,79,0.00,,CLR,0.00,374.00,VWS V14.01,2013-01-05 15:00:00,
2013-01-05 10:05:00,56.8,50.4,30.31,NE,40,5.0,11.0,79,0.00,,CLR,0.00,352.00,VWS V14.01,2013-01-05 15:05:00,
2013-01-05 10:10:00,57.5,50.7,30.31,NE,37,8.0,11.0,78,0.00,,CLR,0.00,374.00,VWS V14.01,2013-01-05 15:10:00,
2013-01-05 10:15:00,57.8,51.0,30.31,ENE,64,3.0,11.0,78,0.00,,CLR,0.00,425.00,VWS V14.01,2013-01-05 15:15:00,
2013-01-05 10:20:00,58.2,51.0,30.31,ENE,70,5.0,11.0,77,0.00,,CLR,0.00,461.00,VWS V14.01,2013-01-05 15:20:00,
2013-01-05 10:25:00,58.6,51.4,30.32,ENE,65,7.0,11.0,77,0.00,,CLR,0.00,504.00,VWS V14.01,2013-01-05 15:25:00,
2013-01-05 10:30:00,58.4,51.6,30.32,NE,52,8.0,11.0,78,0.00,,CLR,0.00,332.00,VWS V14.01,2013-01-05 15:30:00,
2013-01-05 10:35:00,58.7,51.9,30.31,East,95,5.0,9.0,78,0.00,,CLR,0.00,403.00,VWS V14.01,2013-01-05 15:35:00,
2013-01-05 10:40:00,59.1,52.3,30.32,NNE,31,7.0,9.0,78,0.00,,CLR,0.00,376.00,VWS V14.01,2013-01-05 15:40:00,
2013-01-05 10:45:00,59.3,51.8,30.32,North,351,5.0,9.0,76,0.00,,CLR,0.00,371.00,VWS V14.01,2013-01-05 15:45:00,
2013-01-05 10:50:00,59.5,52.3,30.31,NE,38,5.0,9.0,77,0.00,,CLR,0.00,294.00,VWS V14.01,2013-01-05 15:50:00,
2013-01-05 10:55:00,59.5,51.9,30.31,NNE,25,6.0,10.0,76,0.00,,CLR,0.00,302.00,VWS V14.01,2013-01-05 15:55:00,
2013-01-05 11:00:00,59.3,52.1,30.31,NE,55,6.0,10.0,77,0.00,,CLR,0.00,313.00,VWS V14.01,2013-01-05 16:00:00,
2013-01-05 11:05:00,59.7,52.5,30.31,ENE,71,4.0,9.0,77,0.00,,CLR,0.00,350.00,VWS V14.01,2013-01-05 16:05:00,
2013-01-05 11:10:00,60.4,53.2,30.30,NE,38,6.0,9.0,77,0.00,,CLR,0.00,315.00,VWS V14.01,2013-01-05 16:10:00,
2013-01-05 11:15:00,60.6,53.4,30.30,East,85,7.0,13.0,77,0.00,,CLR,0.00,322.00,VWS V14.01,2013-01-05 16:15:00,
2013-01-05 11:20:00,60.2,52.6,30.30,ENE,69,9.0,13.0,76,0.00,,CLR,0.00,325.00,VWS V14.01,2013-01-05 16:20:00,
2013-01-05 11:25:00,60.5,53.3,30.30,NE,38,4.0,13.0,77,0.00,,CLR,0.00,329.00,VWS V14.01,2013-01-05 16:25:00,
2013-01-05 11:30:00,61.2,53.6,30.29,NE,34,5.0,13.0,76,0.00,,CLR,0.00,353.00,VWS V14.01,2013-01-05 16:30:00,
2013-01-05 11:35:00,61.3,53.3,30.29,NNE,20,6.0,10.0,75,0.00,,CLR,0.00,334.00,VWS V14.01,2013-01-05 16:35:00,
2013-01-05 11:40:00,61.2,53.2,30.29,NE,44,6.0,10.0,75,0.00,,CLR,0.00,320.00,VWS V14.01,2013-01-05 16:40:00,
2013-01-05 11:45:00,61.2,53.2,30.29,ENE,73,5.0,10.0,75,0.00,,CLR,0.00,364.00,VWS V14.01,2013-01-05 16:45:00,
2013-01-05 11:50:00,61.8,53.8,30.29,North,351,4.0,10.0,75,0.00,,CLR,0.00,338.00,VWS V14.01,2013-01-05 16:50:00,
2013-01-05 11:55:00,62.0,53.6,30.28,ENE,66,4.0,10.0,74,0.00,,CLR,0.00,371.00,VWS V14.01,2013-01-05 16:55:00,
2013-01-05 12:00:00,62.0,54.0,30.28,ENE,68,5.0,10.0,75,0.00,,CLR,0.00,332.00,VWS V14.01,2013-01-05 17:00:00,
2013-01-05 12:05:00,62.0,53.6,30.28,ENE,60,3.0,10.0,74,0.00,,CLR,0.00,315.00,VWS V14.01,2013-01-05 17:05:00,
2013-01-05 12:10:00,62.3,54.3,30.28,ENE,61,5.0,10.0,75,0.00,,CLR,0.00,327.00,VWS V14.01,2013-01-05 17:10:00,
2013-01-05 12:15:00,62.6,54.6,30.28,NE,40,5.0,10.0,75,0.00,,CLR,0.00,329.00,VWS V14.01,2013-01-05 17:15:00,
2013-01-05 12:20:00,62.6,54.2,30.27,NE,49,2.0,10.0,74,0.00,,BKN017,0.00,327.00,VWS V14.01,2013-01-05 17:20:00,
2013-01-05 12:25:00,63.0,54.6,30.27,NE,55,4.0,10.0,74,0.00,,BKN017,0.00,346.00,VWS V14.01,2013-01-05 17:25:00,
2013-01-05 12:31:00,63.1,54.7,30.27,NE,37,6.0,10.0,74,0.00,,BKN017,0.00,364.00,VWS V14.01,2013-01-05 17:31:00,
2013-01-05 12:36:00,63.7,55.3,30.26,NNE,31,8.0,8.0,74,0.00,,BKN017,0.00,399.00,VWS V14.01,2013-01-05 17:36:00,
2013-01-05 12:41:00,63.6,54.8,30.26,North,350,5.0,10.0,73,0.00,,BKN017,0.00,301.00,VWS V14.01,2013-01-05 17:41:00,
2013-01-05 12:46:00,63.5,54.7,30.25,North,5,2.0,10.0,73,0.00,,BKN017,0.00,362.00,VWS V14.01,2013-01-05 17:46:00,
2013-01-05 12:51:00,64.1,55.7,30.25,NNE,32,4.0,10.0,74,0.00,,BKN017,0.00,608.00,VWS V14.01,2013-01-05 17:51:00,
2013-01-05 12:56:00,65.0,56.2,30.25,North,360,2.0,10.0,73,0.00,,BKN017,0.00,392.00,VWS V14.01,2013-01-05 17:56:00,
2013-01-05 13:01:00,65.7,56.8,30.25,ENE,71,3.0,10.0,73,0.00,,SCT017,0.00,520.00,VWS V14.01,2013-01-05 18:01:00,
2013-01-05 13:06:00,65.5,55.9,30.25,NNE,27,5.0,8.0,71,0.00,,SCT017,0.00,548.00,VWS V14.01,2013-01-05 18:06:00,
2013-01-05 13:11:00,66.2,56.5,30.24,North,11,1.0,9.0,71,0.00,,SCT017,0.00,450.00,VWS V14.01,2013-01-05 18:11:00,
2013-01-05 13:16:00,66.0,56.3,30.24,NNE,30,9.0,9.0,71,0.00,,SCT017,0.00,629.00,VWS V14.01,2013-01-05 18:16:00,
2013-01-05 13:21:00,66.7,57.0,30.23,North,355,5.0,9.0,71,0.00,,SCT017,0.00,564.00,VWS V14.01,2013-01-05 18:21:00,
2013-01-05 13:26:00,66.9,57.2,30.23,North,9,5.0,9.0,71,0.00,,SCT017,0.00,462.00,VWS V14.01,2013-01-05 18:26:00,
2013-01-05 13:31:00,67.1,57.4,30.23,NE,42,3.0,5.0,71,0.00,,SCT017,0.00,420.00,VWS V14.01,2013-01-05 18:31:00,
2013-01-05 13:36:00,66.9,57.2,30.23,NNE,26,5.0,9.0,71,0.00,,SCT017,0.00,360.00,VWS V14.01,2013-01-05 18:36:00,
2013-01-05 13:41:00,67.1,57.4,30.23,NNE,18,5.0,9.0,71,0.00,,SCT017,0.00,638.00,VWS V14.01,2013-01-05 18:41:00,
2013-01-05 13:46:00,66.7,57.0,30.22,NNE,32,10.0,10.0,71,0.00,,SCT017,0.00,404.00,VWS V14.01,2013-01-05 18:46:00,
2013-01-05 13:51:00,67.1,57.8,30.22,North,360,6.0,10.0,72,0.00,,SCT017,0.00,654.00,VWS V14.01,2013-01-05 18:51:00,
2013-01-05 13:56:00,67.6,57.9,30.22,North,350,2.0,10.0,71,0.00,,SCT017,0.00,540.00,VWS V14.01,2013-01-05 18:56:00,
2013-01-05 14:01:00,67.6,57.1,30.22,NNE,19,2.0,2.0,69,0.00,,FEW017,0.00,403.00,VWS V14.01,2013-01-05 19:01:00,
2013-01-05 14:06:00,67.2,57.1,30.22,NNE,18,3.0,7.0,70,0.00,,FEW017,0.00,408.00,VWS V14.01,2013-01-05 19:06:00,
2013-01-05 14:11:00,68.0,57.9,30.22,North,355,4.0,8.0,70,0.00,,FEW017,0.00,519.00,VWS V14.01,2013-01-05 19:11:00,
2013-01-05 14:16:00,68.8,58.2,30.21,North,355,9.0,11.0,69,0.00,,FEW017,0.00,529.00,VWS V14.01,2013-01-05 19:16:00,
2013-01-05 14:21:00,68.9,57.9,30.21,NNE,28,3.0,11.0,68,0.00,,FEW017,0.00,399.00,VWS V14.01,2013-01-05 19:21:00,
2013-01-05 14:26:00,68.7,58.1,30.21,North,10,4.0,11.0,69,0.00,,FEW017,0.00,338.00,VWS V14.01,2013-01-05 19:26:00,
2013-01-05 14:30:00,70.0,60.2,30.22,North,355,6.0,9.0,71,0.00,,,0.00,471.00,VWS V15.00,2013-01-05 19:30:00,
2013-01-05 14:31:00,69.0,58.4,30.21,North,5,5.0,6.0,69,0.00,,FEW017,0.00,260.00,VWS V14.01,2013-01-05 19:31:00,
2013-01-05 14:36:00,68.8,58.6,30.21,North,360,7.0,9.0,70,0.00,,FEW017,0.00,504.00,VWS V14.01,2013-01-05 19:36:00,
2013-01-05 14:41:00,69.1,59.3,30.21,North,355,9.0,9.0,71,0.00,,FEW017,0.00,323.00,VWS V14.01,2013-01-05 19:41:00,
2013-01-05 14:46:00,69.5,59.3,30.21,North,5,5.0,11.0,70,0.00,,FEW017,0.00,494.00,VWS V14.01,2013-01-05 19:46:00,
2013-01-05 14:51:00,69.8,58.8,30.21,North,355,9.0,11.0,68,0.00,,FEW017,0.00,294.00,VWS V14.01,2013-01-05 19:51:00,
2013-01-05 14:56:00,69.2,59.0,30.21,NE,39,4.0,11.0,70,0.00,,FEW017,0.00,244.00,VWS V14.01,2013-01-05 19:56:00,
2013-01-05 15:00:00,69.3,59.9,30.21,East,92,7.0,11.0,72,0.00,,,0.00,162.00,VWS V15.00,2013-01-05 20:00:00,
2013-01-05 15:01:00,68.9,58.7,30.22,NE,36,3.0,5.0,70,0.00,,SCT120,0.00,211.00,VWS V14.01,2013-01-05 20:01:00,
2013-01-05 15:06:00,68.9,58.7,30.22,ENE,74,3.0,8.0,70,0.00,,SCT120,0.00,244.00,VWS V14.01,2013-01-05 20:06:00,
2013-01-05 15:11:00,68.7,58.5,30.22,North,355,3.0,8.0,70,0.00,,SCT120,0.00,227.00,VWS V14.01,2013-01-05 20:11:00,
2013-01-05 15:16:00,69.3,59.5,30.22,North,5,5.0,8.0,71,0.00,,SCT120,0.00,206.00,VWS V14.01,2013-01-05 20:16:00,
2013-01-05 15:21:00,69.4,59.6,30.22,NE,56,3.0,8.0,71,0.00,,SCT120,0.00,248.00,VWS V14.01,2013-01-05 20:21:00,
2013-01-05 15:26:00,69.3,59.5,30.22,NE,51,2.0,8.0,71,0.00,,SCT120,0.00,309.00,VWS V14.01,2013-01-05 20:26:00,
2013-01-05 15:30:00,68.6,59.2,30.22,NNE,31,4.0,9.0,72,0.00,,,0.00,134.00,VWS V15.00,2013-01-05 20:30:00,
2013-01-05 15:31:00,70.1,60.3,30.22,North,5,9.0,9.0,71,0.00,,SCT120,0.00,457.00,VWS V14.01,2013-01-05 20:31:00,
2013-01-05 15:36:00,70.2,59.6,30.21,NE,37,4.0,10.0,69,0.00,,SCT120,0.00,348.00,VWS V14.01,2013-01-05 20:36:00,
2013-01-05 15:41:00,69.7,59.5,30.22,NNE,24,6.0,10.0,70,0.00,,SCT120,0.00,148.00,VWS V14.01,2013-01-05 20:41:00,
2013-01-05 15:46:00,69.3,59.5,30.21,NNE,32,1.0,11.0,71,0.00,,SCT120,0.00,183.00,VWS V14.01,2013-01-05 20:46:00,
2013-01-05 15:51:00,69.5,59.7,30.21,NE,47,5.0,11.0,71,0.00,,SCT120,0.00,163.00,VWS V14.01,2013-01-05 20:51:00,
2013-01-05 15:56:00,69.5,59.7,30.21,NNE,21,3.0,11.0,71,0.00,,SCT120,0.00,183.00,VWS V14.01,2013-01-05 20:56:00,
2013-01-05 16:01:00,69.2,59.8,30.21,ENE,67,4.0,7.0,72,0.00,,BKN120,0.00,162.00,VWS V14.01,2013-01-05 21:01:00,
2013-01-05 16:07:00,69.0,59.2,30.21,NE,53,5.0,9.0,71,0.00,,BKN120,0.00,149.00,VWS V14.01,2013-01-05 21:07:00,
2013-01-05 16:11:00,68.8,59.4,30.21,ENE,69,7.0,9.0,72,0.00,,BKN120,0.00,162.00,VWS V14.01,2013-01-05 21:11:00,
2013-01-05 16:16:00,69.0,59.6,30.21,ENE,67,3.0,9.0,72,0.00,,BKN120,0.00,176.00,VWS V14.01,2013-01-05 21:16:00,
2013-01-05 16:21:00,69.1,59.7,30.21,NNE,31,6.0,9.0,72,0.00,,BKN120,0.00,160.00,VWS V14.01,2013-01-05 21:21:00,
2013-01-05 16:26:00,69.0,59.2,30.22,ENE,75,5.0,9.0,71,0.00,,BKN120,0.00,141.00,VWS V14.01,2013-01-05 21:26:00,
2013-01-05 16:30:00,66.0,58.2,30.22,NNE,16,7.0,9.0,76,0.00,,,0.00,5.00,VWS V15.00,2013-01-05 21:30:00,
2013-01-05 16:32:00,68.6,59.2,30.22,NNE,21,5.0,6.0,72,0.00,,BKN120,0.00,130.00,VWS V14.01,2013-01-05 21:32:00,
2013-01-05 16:37:00,68.5,59.1,30.22,NE,35,4.0,9.0,72,0.00,,BKN120,0.00,181.00,VWS V14.01,2013-01-05 21:37:00,
2013-01-05 16:42:00,68.1,58.7,30.22,NE,49,3.0,9.0,72,0.00,,BKN120,0.00,81.00,VWS V14.01,2013-01-05 21:42:00,
2013-01-05 16:47:00,67.7,58.7,30.22,NE,44,4.0,9.0,73,0.00,,BKN120,0.00,111.00,VWS V14.01,2013-01-05 21:47:00,
2013-01-05 16:52:00,67.7,58.7,30.22,NNE,28,5.0,9.0,73,0.00,,BKN120,0.00,93.00,VWS V14.01,2013-01-05 21:52:00,
2013-01-05 16:57:00,67.5,58.5,30.21,NNE,26,2.0,10.0,73,0.00,,BKN120,0.00,54.00,VWS V14.01,2013-01-05 21:57:00,
2013-01-05 17:02:00,67.3,58.4,30.22,North,360,4.0,4.0,73,0.00,,BKN026,0.00,39.00,VWS V14.01,2013-01-05 22:02:00,
2013-01-05 17:07:00,66.9,58.3,30.22,NNE,24,3.0,8.0,74,0.00,,BKN026,0.00,23.00,VWS V14.01,2013-01-05 22:07:00,
2013-01-05 17:12:00,66.6,58.4,30.22,NNE,18,1.0,9.0,75,0.00,,BKN026,0.00,16.00,VWS V14.01,2013-01-05 22:12:00,
2013-01-05 17:17:00,66.4,58.2,30.22,NNE,32,4.0,9.0,75,0.00,,BKN026,0.00,12.00,VWS V14.01,2013-01-05 22:17:00,
2013-01-05 17:22:00,66.1,58.0,30.22,North,5,5.0,9.0,75,0.00,,BKN026,0.00,12.00,VWS V14.01,2013-01-05 22:22:00,
2013-01-05 17:27:00,66.1,58.3,30.22,NNE,20,3.0,9.0,76,0.00,,BKN026,0.00,7.00,VWS V14.01,2013-01-05 22:27:00,
2013-01-05 17:30:00,64.8,58.1,30.24,NE,40,5.0,8.0,79,0.00,,,0.00,0.00,VWS V15.00,2013-01-05 22:30:00,
2013-01-05 17:32:00,66.0,58.2,30.22,NNE,25,4.0,7.0,76,0.00,,BKN026,0.00,5.00,VWS V14.01,2013-01-05 22:32:00,
2013-01-05 17:37:00,65.9,58.1,30.23,North,5,4.0,9.0,76,0.00,,BKN026,0.00,0.00,VWS V14.01,2013-01-05 22:37:00,
2013-01-05 17:42:00,65.8,58.0,30.23,NNE,15,2.0,9.0,76,0.00,,BKN026,0.00,0.00,VWS V14.01,2013-01-05 22:42:00,
2013-01-05 17:47:00,65.7,58.3,30.23,NNE,23,4.0,9.0,77,0.00,,BKN026,0.00,0.00,VWS V14.01,2013-01-05 22:47:00,
2013-01-05 17:52:00,65.6,58.2,30.23,NNE,27,4.0,9.0,77,0.00,,BKN026,0.00,0.00,VWS V14.01,2013-01-05 22:52:00,
2013-01-05 17:57:00,65.4,58.0,30.24,North,11,4.0,9.0,77,0.00,,BKN026,0.00,0.00,VWS V14.01,2013-01-05 22:57:00,
2013-01-05 18:00:00,64.3,57.7,30.25,North,360,6.0,9.0,79,0.00,,,0.00,0.00,VWS V15.00,2013-01-05 23:00:00,
2013-01-05 18:02:00,65.2,58.2,30.24,North,355,3.0,6.0,78,0.00,,BKN028,0.00,0.00,VWS V14.01,2013-01-05 23:02:00,
2013-01-05 18:07:00,65.2,58.2,30.23,NE,45,6.0,6.0,78,0.00,,BKN028,0.00,0.00,VWS V14.01,2013-01-05 23:07:00,
2013-01-05 18:12:00,65.0,58.0,30.23,NE,36,3.0,6.0,78,0.00,,BKN028,0.00,0.00,VWS V14.01,2013-01-05 23:12:00,
2013-01-05 18:17:00,65.0,58.0,30.24,North,360,4.0,7.0,78,0.00,,BKN028,0.00,0.00,VWS V14.01,2013-01-05 23:17:00,
2013-01-05 18:22:00,64.9,57.9,30.24,NNE,27,6.0,8.0,78,0.00,,BKN028,0.00,0.00,VWS V14.01,2013-01-05 23:22:00,
2013-01-05 18:27:00,64.8,58.1,30.24,NNE,26,6.0,8.0,79,0.00,,BKN028,0.00,0.00,VWS V14.01,2013-01-05 23:27:00,
2013-01-05 18:30:00,63.9,57.6,30.26,NNE,24,3.0,9.0,80,0.00,,,0.00,0.00,VWS V15.00,2013-01-05 23:30:00,
2013-01-05 18:32:00,64.7,58.0,30.24,NNE,25,2.0,5.0,79,0.00,,BKN028,0.00,0.00,VWS V14.01,2013-01-05 23:32:00,
2013-01-05 18:37:00,64.7,58.0,30.24,NE,43,5.0,9.0,79,0.00,,BKN028,0.00,0.00,VWS V14.01,2013-01-05 23:37:00,
2013-01-05 18:42:00,64.6,58.0,30.25,North,360,3.0,9.0,79,0.00,,BKN028,0.00,0.00,VWS V14.01,2013-01-05 23:42:00,
2013-01-05 18:47:00,64.5,57.8,30.25,NE,42,6.0,9.0,79,0.00,,BKN028,0.00,0.00,VWS V14.01,2013-01-05 23:47:00,
2013-01-05 18:52:00,64.4,57.8,30.25,NNE,15,3.0,9.0,79,0.00,,BKN028,0.00,0.00,VWS V14.01,2013-01-05 23:52:00,
2013-01-05 18:57:00,64.3,57.7,30.25,NNE,13,6.0,9.0,79,0.00,,BKN028,0.00,0.00,VWS V14.01,2013-01-05 23:57:00,
2013-01-05 19:00:00,63.6,57.7,30.26,NNE,30,2.0,9.0,81,0.00,,,0.00,0.00,VWS V15.00,2013-01-06 00:00:00,
2013-01-05 19:02:00,64.3,57.7,30.25,NNE,25,6.0,6.0,79,0.00,,OVC030,0.00,0.00,VWS V14.01,2013-01-06 00:02:00,
2013-01-05 19:07:00,64.2,57.6,30.25,NE,38,5.0,9.0,79,0.00,,OVC030,0.00,0.00,VWS V14.01,2013-01-06 00:07:00,
2013-01-05 19:12:00,64.1,57.5,30.25,NE,38,4.0,9.0,79,0.00,,OVC030,0.00,0.00,VWS V14.01,2013-01-06 00:12:00,
2013-01-05 19:17:00,64.0,57.7,30.25,NNE,25,6.0,9.0,80,0.00,,OVC030,0.00,0.00,VWS V14.01,2013-01-06 00:17:00,
2013-01-05 19:22:00,64.0,57.7,30.26,NNE,26,7.0,9.0,80,0.00,,OVC030,0.00,0.00,VWS V14.01,2013-01-06 00:22:00,
2013-01-05 19:27:00,63.9,57.6,30.26,NNE,18,3.0,9.0,80,0.00,,OVC030,0.00,0.00,VWS V14.01,2013-01-06 00:27:00,
2013-01-05 19:30:00,63.2,57.6,30.26,ENE,76,3.0,8.0,82,0.00,,,0.00,0.00,VWS V15.00,2013-01-06 00:30:00,
2013-01-05 19:32:00,63.9,57.6,30.26,NNE,33,5.0,9.0,80,0.00,,OVC030,0.00,0.00,VWS V14.01,2013-01-06 00:32:00,
2013-01-05 19:37:00,63.8,57.5,30.26,NNE,24,5.0,9.0,80,0.00,,OVC030,0.00,0.00,VWS V14.01,2013-01-06 00:37:00,
2013-01-05 19:42:00,63.8,57.9,30.26,North,360,5.0,9.0,81,0.00,,OVC030,0.00,0.00,VWS V14.01,2013-01-06 00:42:00,
2013-01-05 19:47:00,63.7,57.4,30.26,NNE,28,1.0,9.0,80,0.00,,OVC030,0.00,0.00,VWS V14.01,2013-01-06 00:47:00,
2013-01-05 19:52:00,63.6,57.7,30.26,North,355,3.0,9.0,81,0.00,,OVC030,0.00,0.00,VWS V14.01,2013-01-06 00:52:00,
2013-01-05 19:57:00,63.6,57.7,30.26,NE,49,5.0,9.0,81,0.00,,OVC030,0.00,0.00,VWS V14.01,2013-01-06 00:57:00,
2013-01-05 20:02:00,63.5,57.6,30.26,NNE,25,4.0,7.0,81,0.00,,BKN039,0.00,0.00,VWS V14.01,2013-01-06 01:02:00,
2013-01-05 20:07:00,63.5,57.6,30.26,NNE,28,4.0,7.0,81,0.00,,BKN039,0.00,0.00,VWS V14.01,2013-01-06 01:07:00,
2013-01-05 20:12:00,63.4,57.5,30.26,NNE,24,4.0,7.0,81,0.00,,BKN039,0.00,0.00,VWS V14.01,2013-01-06 01:12:00,
2013-01-05 20:17:00,63.3,57.7,30.26,ENE,63,2.0,7.0,82,0.00,,BKN070,0.00,0.00,VWS V14.01,2013-01-06 01:17:00,
2013-01-05 20:22:00,63.2,57.6,30.26,NNE,32,5.0,8.0,82,0.00,,BKN070,0.00,0.00,VWS V14.01,2013-01-06 01:22:00,
2013-01-05 20:27:00,63.2,57.6,30.26,NE,38,5.0,8.0,82,0.00,,BKN070,0.00,0.00,VWS V14.01,2013-01-06 01:27:00,
2013-01-05 20:30:00,62.6,57.4,30.25,NNE,28,5.0,7.0,83,0.00,,,0.00,0.00,VWS V15.00,2013-01-06 01:30:00,
2013-01-05 20:32:00,63.1,57.5,30.25,NE,51,2.0,4.0,82,0.00,,BKN070,0.00,0.00,VWS V14.01,2013-01-06 01:32:00,
2013-01-05 20:37:00,63.1,57.5,30.25,ENE,57,3.0,5.0,82,0.00,,BKN070,0.00,0.00,VWS V14.01,2013-01-06 01:37:00,
2013-01-05 20:42:00,63.0,57.4,30.25,NE,52,3.0,5.0,82,0.00,,OVC070,0.00,0.00,VWS V14.01,2013-01-06 01:42:00,
2013-01-05 20:47:00,63.0,57.4,30.25,NE,44,4.0,5.0,82,0.00,,OVC070,0.00,0.00,VWS V14.01,2013-01-06 01:47:00,
2013-01-05 20:52:00,63.0,57.4,30.25,NE,41,3.0,7.0,82,0.00,,OVC070,0.00,0.00,VWS V14.01,2013-01-06 01:52:00,
2013-01-05 20:57:00,63.0,57.4,30.25,NE,40,4.0,7.0,82,0.00,,OVC070,0.00,0.00,VWS V14.01,2013-01-06 01:57:00,
2013-01-05 21:02:00,62.9,57.3,30.25,NE,53,5.0,6.0,82,0.00,,BKN070,0.00,0.00,VWS V14.01,2013-01-06 02:02:00,
2013-01-05 21:07:00,62.9,57.3,30.25,NE,38,3.0,6.0,82,0.00,,BKN070,0.00,0.00,VWS V14.01,2013-01-06 02:07:00,
2013-01-05 21:12:00,62.8,57.2,30.25,NE,41,6.0,6.0,82,0.00,,BKN070,0.00,0.00,VWS V14.01,2013-01-06 02:12:00,
2013-01-05 21:17:00,62.8,57.2,30.25,NE,43,5.0,7.0,82,0.00,,OVC070,0.00,0.00,VWS V14.01,2013-01-06 02:17:00,
2013-01-05 21:22:00,62.7,57.5,30.25,ENE,61,4.0,7.0,83,0.00,,OVC070,0.00,0.00,VWS V14.01,2013-01-06 02:22:00,
2013-01-05 21:27:00,62.7,57.5,30.25,NE,42,5.0,7.0,83,0.00,,OVC070,0.00,0.00,VWS V14.01,2013-01-06 02:27:00,
2013-01-05 21:30:00,62.0,57.4,30.25,NE,38,1.0,6.0,85,0.00,,,0.00,0.00,VWS V15.00,2013-01-06 02:30:00,
2013-01-05 21:32:00,62.6,57.4,30.25,NNE,28,4.0,5.0,83,0.00,,OVC070,0.00,0.00,VWS V14.01,2013-01-06 02:32:00,
2013-01-05 21:37:00,62.5,57.3,30.25,NE,36,3.0,6.0,83,0.00,,OVC049,0.00,0.00,VWS V14.01,2013-01-06 02:37:00,
2013-01-05 21:42:00,62.5,57.3,30.25,NNE,19,2.0,6.0,83,0.00,,OVC049,0.00,0.00,VWS V14.01,2013-01-06 02:42:00,
2013-01-05 21:47:00,62.4,57.2,30.25,North,11,3.0,6.0,83,0.00,,OVC049,0.00,0.00,VWS V14.01,2013-01-06 02:47:00,
2013-01-05 21:53:00,62.4,57.5,30.25,North,5,7.0,7.0,84,0.00,,OVC049,0.00,0.00,VWS V14.01,2013-01-06 02:53:00,
2013-01-05 21:58:00,62.3,57.4,30.25,NNE,12,3.0,7.0,84,0.00,,OVC049,0.00,0.00,VWS V14.01,2013-01-06 02:58:00,
2013-01-05 22:03:00,62.3,57.4,30.25,NNE,21,5.0,5.0,84,0.00,,OVC045,0.00,0.00,VWS V14.01,2013-01-06 03:03:00,
2013-01-05 22:08:00,62.2,57.3,30.25,NNE,23,4.0,5.0,84,0.00,,OVC045,0.00,0.00,VWS V14.01,2013-01-06 03:08:00,
2013-01-05 22:13:00,62.2,57.3,30.25,NE,46,3.0,5.0,84,0.00,,OVC045,0.00,0.00,VWS V14.01,2013-01-06 03:13:00,
2013-01-05 22:18:00,62.1,57.2,30.25,NE,43,2.0,6.0,84,0.00,,OVC040,0.00,0.00,VWS V14.01,2013-01-06 03:18:00,
2013-01-05 22:23:00,62.1,57.2,30.25,NE,46,1.0,6.0,84,0.00,,OVC040,0.00,0.00,VWS V14.01,2013-01-06 03:23:00,
2013-01-05 22:28:00,62.0,57.1,30.25,NNE,15,3.0,6.0,84,0.00,,OVC040,0.00,0.00,VWS V14.01,2013-01-06 03:28:00,
2013-01-05 22:33:00,61.9,57.3,30.25,NNE,16,2.0,4.0,85,0.00,,OVC040,0.00,0.00,VWS V14.01,2013-01-06 03:33:00,
2013-01-05 22:38:00,61.9,57.3,30.24,NNE,24,2.0,4.0,85,0.00,,OVC046,0.00,0.00,VWS V14.01,2013-01-06 03:38:00,
2013-01-05 22:43:00,61.8,57.2,30.24,NNE,28,1.0,4.0,85,0.00,,OVC046,0.00,0.00,VWS V14.01,2013-01-06 03:43:00,
2013-01-05 22:48:00,61.8,57.2,30.24,North,5,3.0,4.0,85,0.00,,OVC046,0.00,0.00,VWS V14.01,2013-01-06 03:48:00,
2013-01-05 22:53:00,61.8,57.2,30.24,NNE,33,1.0,4.0,85,0.00,,OVC046,0.00,0.00,VWS V14.01,2013-01-06 03:53:00,
2013-01-05 22:58:00,61.7,57.2,30.24,North,11,3.0,4.0,85,0.00,,OVC047,0.00,0.00,VWS V14.01,2013-01-06 03:58:00,
2013-01-05 23:00:00,61.2,57.3,30.23,NE,40,1.0,4.0,87,0.00,,,0.00,0.00,VWS V15.00,2013-01-06 04:00:00,
2013-01-05 23:03:00,61.7,57.2,30.24,North,11,2.0,7.0,85,0.00,,OVC047,0.00,0.00,VWS V14.01,2013-01-06 04:03:00,
2013-01-05 23:08:00,61.6,57.0,30.24,NE,34,1.0,7.0,85,0.00,,OVC047,0.00,0.00,VWS V14.01,2013-01-06 04:08:00,
2013-01-05 23:13:00,61.6,57.4,30.24,NNE,30,0.0,7.0,86,0.00,,OVC047,0.00,0.00,VWS V14.01,2013-01-06 04:13:00,
2013-01-05 23:18:00,61.6,57.4,30.23,NNE,18,3.0,7.0,86,0.00,,OVC047,0.00,0.00,VWS V14.01,2013-01-06 04:18:00,
2013-01-05 23:23:00,61.6,57.4,30.23,NNE,27,2.0,7.0,86,0.00,,OVC047,0.00,0.00,VWS V14.01,2013-01-06 04:23:00,
2013-01-05 23:28:00,61.6,57.4,30.24,ENE,63,0.0,7.0,86,0.00,,OVC047,0.00,0.00,VWS V14.01,2013-01-06 04:28:00,
2013-01-05 23:30:00,61.0,57.1,30.21,NE,51,2.0,4.0,87,0.00,,,0.00,0.00,VWS V15.00,2013-01-06 04:30:00,
2013-01-05 23:33:00,61.4,57.2,30.23,NE,36,2.0,2.0,86,0.00,,OVC047,0.00,0.00,VWS V14.01,2013-01-06 04:33:00,
2013-01-05 23:38:00,61.4,57.2,30.23,NE,36,0.0,2.0,86,0.00,,OVC036,0.00,0.00,VWS V14.01,2013-01-06 04:38:00,
2013-01-05 23:43:00,61.4,57.2,30.23,NNE,26,1.0,3.0,86,0.00,,OVC036,0.00,0.00,VWS V14.01,2013-01-06 04:43:00,
2013-01-05 23:48:00,61.3,57.4,30.24,NNE,32,2.0,3.0,87,0.00,,OVC036,0.00,0.00,VWS V14.01,2013-01-06 04:48:00,
2013-01-05 23:53:00,61.3,57.4,30.23,NNE,18,1.0,4.0,87,0.00,,OVC036,0.00,0.00,VWS V14.01,2013-01-06 04:53:00,
2013-01-05 23:58:00,61.2,57.3,30.23,NNE,32,4.0,4.0,87,0.00,,OVC065,0.00,0.00,VWS V14.01,2013-01-06 04:58:00,